createdAt,value
2023-03-25T00:01:39.207Z,28.40
2023-03-25T00:04:07.624Z,27.30
2023-03-25T00:06:36.113Z,28.20
2023-03-25T00:09:04.816Z,31.80
2023-03-25T00:12:01.387Z,30.50
2023-03-25T00:14:34.141Z,26.10
2023-03-25T00:17:03.273Z,30.50
2023-03-25T00:19:32.513Z,34.20
2023-03-25T00:22:03.034Z,28.50
2023-03-25T00:24:31.482Z,31.40
2023-03-25T00:27:00.133Z,28.00
2023-03-25T00:29:29.293Z,29.80
2023-03-25T00:31:57.809Z,31.20
2023-03-25T00:34:26.647Z,33.20
2023-03-25T00:36:57.068Z,29.60
2023-03-25T00:39:28.720Z,32.30
2023-03-25T00:41:57.614Z,28.30
2023-03-25T00:44:30.129Z,32.10
2023-03-25T00:47:00.321Z,26.20
2023-03-25T00:49:32.773Z,35.30
2023-03-25T00:52:02.174Z,30.30
2023-03-25T00:54:34.623Z,29.20
2023-03-25T00:57:03.571Z,32.20
2023-03-25T00:59:32.518Z,33.90
2023-03-25T01:02:06.682Z,31.50
2023-03-25T01:04:41.465Z,35.30
2023-03-25T01:07:11.555Z,33.00
2023-03-25T01:09:43.649Z,31.40
2023-03-25T01:12:40.357Z,32.60
2023-03-25T01:15:11.427Z,28.90
2023-03-25T01:17:40.305Z,34.80
2023-03-25T01:20:12.366Z,34.50
2023-03-25T01:22:43.748Z,35.40
2023-03-25T01:25:15.696Z,30.60
2023-03-25T01:27:44.661Z,29.40
2023-03-25T01:30:14.563Z,31.60
2023-03-25T01:32:43.509Z,34.50
2023-03-25T01:35:17.362Z,33.70
2023-03-25T01:37:50.526Z,36.00
2023-03-25T01:40:24.301Z,34.20
2023-03-25T01:42:55.436Z,32.30
2023-03-25T01:45:31.122Z,37.60
2023-03-25T01:48:10.812Z,32.10
2023-03-25T01:50:44.299Z,39.50
2023-03-25T01:53:13.788Z,29.30
2023-03-25T01:55:48.157Z,30.50
2023-03-25T01:58:24.940Z,30.00
2023-03-25T02:00:56.349Z,30.20
2023-03-25T02:03:26.504Z,31.40
2023-03-25T02:06:32.500Z,30.80
2023-03-25T02:09:09.400Z,26.50
2023-03-25T02:11:40.826Z,31.00
2023-03-25T02:14:15.456Z,30.90
2023-03-25T02:17:05.279Z,30.40
2023-03-25T02:20:14.257Z,30.80
2023-03-25T02:23:22.326Z,29.00
2023-03-25T02:26:27.862Z,29.20
2023-03-25T02:29:05.884Z,29.40
2023-03-25T02:32:25.393Z,29.10
2023-03-25T02:35:30.739Z,29.30
2023-03-25T02:38:20.212Z,32.10
2023-03-25T02:41:05.320Z,26.10
2023-03-25T02:43:51.112Z,30.00
2023-03-25T02:46:23.920Z,24.00
2023-03-25T02:49:19.944Z,23.10
2023-03-25T02:51:55.081Z,22.20
2023-03-25T02:54:26.255Z,25.00
2023-03-25T02:56:57.912Z,32.10
2023-03-25T02:59:33.543Z,26.10
2023-03-25T03:02:11.984Z,21.30
2023-03-25T03:04:53.515Z,22.80
2023-03-25T03:07:33.794Z,27.90
2023-03-25T03:10:19.813Z,26.30
2023-03-25T03:12:59.968Z,27.70
2023-03-25T03:15:42.907Z,22.40
2023-03-25T03:18:27.637Z,24.40
2023-03-25T03:21:14.464Z,24.80
2023-03-25T03:24:06.645Z,29.90
2023-03-25T03:26:53.669Z,20.80
2023-03-25T03:29:32.141Z,23.20
2023-03-25T03:32:17.051Z,24.90
2023-03-25T03:34:59.294Z,27.50
2023-03-25T03:37:37.734Z,24.00
2023-03-25T03:40:10.814Z,26.00
2023-03-25T03:42:47.344Z,25.60
2023-03-25T03:45:29.963Z,22.80
2023-03-25T03:48:02.974Z,23.30
2023-03-25T03:50:40.048Z,23.00
2023-03-25T03:53:31.267Z,21.90
2023-03-25T03:56:06.474Z,22.90
2023-03-25T03:58:59.866Z,22.10
2023-03-25T04:01:54.967Z,20.70
2023-03-25T04:04:28.603Z,23.20
2023-03-25T04:07:15.101Z,23.90
2023-03-25T04:09:56.936Z,23.50
2023-03-25T04:12:42.014Z,24.20
2023-03-25T04:15:12.507Z,21.90
2023-03-25T04:17:41.455Z,22.60
2023-03-25T04:20:24.212Z,21.70
2023-03-25T04:22:54.050Z,20.80
2023-03-25T04:25:25.506Z,28.20
2023-03-25T04:27:59.235Z,22.20
2023-03-25T04:30:31.438Z,22.70
2023-03-25T04:33:00.964Z,24.00
2023-03-25T04:35:33.331Z,23.00
2023-03-25T04:38:02.304Z,20.30
2023-03-25T04:40:33.816Z,25.50
2023-03-25T04:43:02.665Z,19.00
2023-03-25T04:45:36.907Z,19.60
2023-03-25T04:48:20.288Z,22.20
2023-03-25T04:50:49.274Z,19.00
2023-03-25T04:53:19.688Z,19.80
2023-03-25T04:55:50.229Z,22.40
2023-03-25T04:58:18.908Z,22.00
2023-03-25T05:00:51.308Z,19.60
2023-03-25T05:03:24.881Z,23.90
2023-03-25T05:05:54.249Z,21.90
2023-03-25T05:08:22.987Z,21.20
2023-03-25T05:10:52.889Z,20.20
2023-03-25T05:14:03.348Z,19.40
2023-03-25T05:16:33.666Z,22.00
2023-03-25T05:19:04.198Z,17.90
2023-03-25T05:21:38.727Z,24.60
2023-03-25T05:24:10.696Z,21.00
2023-03-25T05:26:43.632Z,26.70
2023-03-25T05:29:15.036Z,22.60
2023-03-25T05:31:47.335Z,23.90
2023-03-25T05:34:22.408Z,20.00
2023-03-25T05:36:51.436Z,18.50
2023-03-25T05:39:20.885Z,22.50
2023-03-25T05:41:52.841Z,17.80
2023-03-25T05:44:26.039Z,19.30
2023-03-25T05:46:55.102Z,17.60
2023-03-25T05:49:27.203Z,18.00
2023-03-25T05:51:56.459Z,20.00
2023-03-25T05:54:25.785Z,21.70
2023-03-25T05:56:54.426Z,21.30
2023-03-25T05:59:23.288Z,21.80
2023-03-25T06:01:52.339Z,22.00
2023-03-25T06:04:22.127Z,22.60
2023-03-25T06:06:52.177Z,20.30
2023-03-25T06:09:21.828Z,23.40
2023-03-25T06:12:52.749Z,26.60
2023-03-25T06:15:34.076Z,25.10
2023-03-25T06:18:03.251Z,27.70
2023-03-25T06:20:33.891Z,27.00
2023-03-25T06:23:10.325Z,27.50
2023-03-25T06:25:40.280Z,33.10
2023-03-25T06:28:09.149Z,29.80
2023-03-25T06:30:38.747Z,25.20
2023-03-25T06:33:07.052Z,27.20
2023-03-25T06:35:36.964Z,26.70
2023-03-25T06:38:05.876Z,29.50
2023-03-25T06:40:35.419Z,26.40
2023-03-25T06:43:07.487Z,38.30
2023-03-25T06:45:36.472Z,36.80
2023-03-25T06:48:06.080Z,32.10
2023-03-25T06:50:34.827Z,24.60
2023-03-25T06:53:03.932Z,21.30
2023-03-25T06:55:32.684Z,20.90
2023-03-25T06:58:16.959Z,155.20
2023-03-25T07:00:55.263Z,26.00
2023-03-25T07:03:25.161Z,24.50
2023-03-25T07:05:54.093Z,21.80
2023-03-25T07:08:22.774Z,20.90
2023-03-25T07:10:51.243Z,20.60
2023-03-25T07:13:21.071Z,25.10
2023-03-25T07:15:49.993Z,21.70
2023-03-25T07:18:19.174Z,18.40
2023-03-25T07:20:49.108Z,15.90
2023-03-25T07:23:17.525Z,18.10
2023-03-25T07:25:47.332Z,20.60
2023-03-25T07:28:16.760Z,19.90
2023-03-25T07:30:45.562Z,19.20
2023-03-25T07:33:14.146Z,19.60
2023-03-25T07:35:43.251Z,18.70
2023-03-25T07:38:12.150Z,17.00
2023-03-25T07:40:40.777Z,17.90
2023-03-25T07:43:09.639Z,23.70
2023-03-25T07:45:55.930Z,16.10
2023-03-25T07:48:25.009Z,15.10
2023-03-25T07:50:54.151Z,18.90
2023-03-25T07:53:23.718Z,15.30
2023-03-25T07:55:52.518Z,18.30
2023-03-25T07:58:21.428Z,15.40
2023-03-25T08:00:50.781Z,23.20
2023-03-25T08:03:19.374Z,15.60
2023-03-25T08:05:49.165Z,11.60
2023-03-25T08:08:17.820Z,11.40
2023-03-25T08:10:48.439Z,12.50
2023-03-25T08:13:16.959Z,10.20
2023-03-25T08:15:46.051Z,9.50
2023-03-25T08:18:15.961Z,6.40
2023-03-25T08:20:44.400Z,11.30
2023-03-25T08:23:20.288Z,11.80
2023-03-25T08:25:51.566Z,6.40
2023-03-25T08:28:23.648Z,7.40
2023-03-25T08:30:56.183Z,7.10
2023-03-25T08:33:27.833Z,6.40
2023-03-25T08:35:58.183Z,9.10
2023-03-25T08:38:34.288Z,5.60
2023-03-25T08:41:03.831Z,6.30
2023-03-25T08:43:32.912Z,5.80
2023-03-25T08:46:01.452Z,6.40
2023-03-25T08:48:31.228Z,9.10
2023-03-25T08:51:00.014Z,8.10
2023-03-25T08:53:28.524Z,7.90
2023-03-25T08:55:59.264Z,5.30
2023-03-25T08:58:28.534Z,7.20
2023-03-25T09:00:58.309Z,6.20
2023-03-25T09:03:27.661Z,5.60
2023-03-25T09:05:57.243Z,5.40
2023-03-25T09:08:25.783Z,4.70
2023-03-25T09:10:56.756Z,4.60
2023-03-25T09:13:25.860Z,4.60
2023-03-25T09:15:54.663Z,7.00
2023-03-25T09:18:23.847Z,5.20
2023-03-25T09:20:58.454Z,4.10
2023-03-25T09:23:27.692Z,4.60
2023-03-25T09:26:02.134Z,4.60
2023-03-25T09:28:31.580Z,4.20
2023-03-25T09:31:00.087Z,5.30
2023-03-25T09:33:29.071Z,4.30
2023-03-25T09:35:57.634Z,3.80
2023-03-25T09:38:26.634Z,4.20
2023-03-25T09:40:55.719Z,4.40
2023-03-25T09:43:46.583Z,5.90
2023-03-25T09:46:15.389Z,3.80
2023-03-25T09:48:47.469Z,4.00
2023-03-25T09:51:34.033Z,3.90
2023-03-25T09:54:15.244Z,3.80
2023-03-25T09:56:45.017Z,4.10
2023-03-25T09:59:33.567Z,4.90
2023-03-25T10:02:08.108Z,4.70
2023-03-25T10:05:04.770Z,6.10
2023-03-25T10:07:33.286Z,6.10
2023-03-25T10:10:18.986Z,4.40
2023-03-25T10:12:53.606Z,4.70
2023-03-25T10:16:27.543Z,3.60
2023-03-25T10:19:11.771Z,4.90
2023-03-25T10:30:47.228Z,3.90
2023-03-25T10:41:04.501Z,6.40
2023-03-25T10:46:28.014Z,3.90
2023-03-25T10:48:55.541Z,4.20
2023-03-25T10:54:20.635Z,4.00
2023-03-25T10:56:55.864Z,5.30
2023-03-25T10:59:32.683Z,5.40
2023-03-25T11:02:12.694Z,2.40
2023-03-25T11:04:45.207Z,4.80
2023-03-25T11:07:33.240Z,5.80
2023-03-25T11:10:14.959Z,5.60
2023-03-25T11:12:48.504Z,4.70
2023-03-25T11:15:35.199Z,2.50
2023-03-25T11:18:13.454Z,3.40
2023-03-25T11:21:04.909Z,3.70
2023-03-25T11:23:36.828Z,4.00
2023-03-25T11:26:24.551Z,1.60
2023-03-25T11:29:02.913Z,3.60
2023-03-25T11:31:37.164Z,3.50
2023-03-25T11:34:20.908Z,1.40
2023-03-25T11:36:57.786Z,2.80
2023-03-25T11:39:33.192Z,3.10
2023-03-25T11:42:17.619Z,3.50
2023-03-25T11:44:54.220Z,4.70
2023-03-25T11:47:27.480Z,1.90
2023-03-25T11:49:56.183Z,1.50
2023-03-25T11:52:29.270Z,3.60
2023-03-25T11:54:57.991Z,0.80
2023-03-25T11:57:32.790Z,2.40
2023-03-25T12:00:12.743Z,4.40
2023-03-25T12:02:41.887Z,2.70
2023-03-25T12:05:14.764Z,2.30
2023-03-25T12:07:45.907Z,3.20
2023-03-25T12:10:34.775Z,4.20
2023-03-25T12:13:17.369Z,0.90
2023-03-25T12:15:46.026Z,2.90
2023-03-25T12:18:44.059Z,1.90
2023-03-25T12:21:57.785Z,2.60
2023-03-25T12:24:44.275Z,4.00
2023-03-25T12:27:44.573Z,6.70
2023-03-25T12:30:21.998Z,2.50
2023-03-25T12:32:59.816Z,2.20
2023-03-25T12:35:57.541Z,3.10
2023-03-25T12:39:00.648Z,3.10
2023-03-25T12:41:34.305Z,2.50
2023-03-25T12:44:11.417Z,2.60
2023-03-25T12:47:09.561Z,3.60
2023-03-25T12:50:01.552Z,3.20
2023-03-25T12:52:43.485Z,2.90
2023-03-25T12:55:53.895Z,3.50
2023-03-25T13:02:14.687Z,5.70
2023-03-25T13:04:49.449Z,5.10
2023-03-25T13:07:27.798Z,5.90
2023-03-25T13:10:31.593Z,4.20
2023-03-25T13:13:03.614Z,2.90
2023-03-25T13:16:08.297Z,3.70
2023-03-25T13:18:54.250Z,4.30
2023-03-25T13:21:29.340Z,4.30
2023-03-25T13:24:08.295Z,2.90
2023-03-25T13:26:40.431Z,3.40
2023-03-25T13:29:29.497Z,7.60
2023-03-25T13:32:03.596Z,4.50
2023-03-25T13:34:44.333Z,3.20
2023-03-25T13:37:36.229Z,3.10
2023-03-25T13:40:33.864Z,2.80
2023-03-25T13:43:33.732Z,4.40
2023-03-25T13:46:16.975Z,3.20
2023-03-25T13:49:36.629Z,2.60
2023-03-25T13:52:09.746Z,2.70
2023-03-25T13:54:52.665Z,3.30
2023-03-25T13:57:42.908Z,3.70
2023-03-25T14:01:08.175Z,1.30
2023-03-25T14:03:59.218Z,0.60
2023-03-25T14:07:18.529Z,1.00
2023-03-25T14:11:10.357Z,2.50
2023-03-25T14:14:23.423Z,1.20
2023-03-25T14:17:19.146Z,1.10
2023-03-25T14:19:55.680Z,1.20
2023-03-25T14:22:29.467Z,1.70
2023-03-25T14:27:35.708Z,1.60
2023-03-25T14:30:29.066Z,3.10
2023-03-25T14:33:04.423Z,1.20
2023-03-25T14:35:34.164Z,1.00
2023-03-25T14:38:07.243Z,2.00
2023-03-25T14:40:50.734Z,1.50
2023-03-25T14:43:47.569Z,2.20
2023-03-25T14:46:24.915Z,4.20
2023-03-25T14:49:22.894Z,3.50
2023-03-25T14:51:58.689Z,2.90
2023-03-25T14:54:37.069Z,5.10
2023-03-25T14:57:40.380Z,2.70
2023-03-25T15:00:31.739Z,3.10
2023-03-25T15:03:18.092Z,4.50
2023-03-25T15:06:00.726Z,3.00
2023-03-25T15:08:45.563Z,4.60
2023-03-25T15:14:13.837Z,10.40
2023-03-25T15:17:15.271Z,6.60
2023-03-25T15:19:59.927Z,3.60
2023-03-25T15:22:29.548Z,14.20
2023-03-25T15:25:19.696Z,10.00
2023-03-25T15:34:46.172Z,26.40
2023-03-25T15:37:45.496Z,45.20
2023-03-25T15:40:29.247Z,16.00
2023-03-25T15:43:02.415Z,4.30
2023-03-25T15:45:50.136Z,3.40
2023-03-25T15:48:24.549Z,3.50
2023-03-25T15:51:16.181Z,7.10
2023-03-25T15:54:32.883Z,2.50
2023-03-25T15:57:30.372Z,5.00
2023-03-25T16:00:21.070Z,2.70
2023-03-25T16:02:59.400Z,2.90
2023-03-25T16:05:31.367Z,5.20
2023-03-25T16:08:07.860Z,4.80
2023-03-25T16:10:37.753Z,3.00
2023-03-25T16:14:22.263Z,6.10
2023-03-25T16:16:59.047Z,4.90
2023-03-25T16:19:40.260Z,9.90
2023-03-25T16:22:22.238Z,5.10
2023-03-25T16:24:51.802Z,6.60
2023-03-25T16:27:34.303Z,7.70
2023-03-25T16:30:18.957Z,7.70
2023-03-25T16:32:47.555Z,6.40
2023-03-25T16:35:25.582Z,7.30
2023-03-25T16:37:58.804Z,8.90
2023-03-25T16:40:44.021Z,8.50
2023-03-25T16:43:24.018Z,8.40
2023-03-25T16:46:04.760Z,24.00
2023-03-25T16:48:37.255Z,18.00
2023-03-25T16:51:20.764Z,25.50
2023-03-25T16:54:00.175Z,14.60
2023-03-25T16:56:34.775Z,13.80
2023-03-25T16:59:08.469Z,14.10
2023-03-25T17:01:43.179Z,14.70
2023-03-25T17:04:27.089Z,15.50
2023-03-25T17:07:01.724Z,12.10
2023-03-25T17:09:40.599Z,11.80
2023-03-25T17:12:19.972Z,12.50
2023-03-25T17:14:51.276Z,13.50
2023-03-25T17:17:23.573Z,14.30
2023-03-25T17:19:53.863Z,11.80
2023-03-25T17:22:32.738Z,11.20
2023-03-25T17:25:37.263Z,13.80
2023-03-25T17:28:32.848Z,10.80
2023-03-25T17:31:20.470Z,11.50
2023-03-25T17:33:52.914Z,10.30
2023-03-25T17:36:22.392Z,11.30
2023-03-25T17:38:54.446Z,13.80
2023-03-25T17:41:36.682Z,10.70
2023-03-25T17:44:10.211Z,11.40
2023-03-25T17:46:39.895Z,12.90
2023-03-25T17:49:20.383Z,14.90
2023-03-25T17:51:51.530Z,17.30
2023-03-25T17:54:21.009Z,16.80
2023-03-25T17:56:52.333Z,14.00
2023-03-25T17:59:25.788Z,25.60
2023-03-25T18:01:55.414Z,24.30
2023-03-25T18:04:26.094Z,20.10
2023-03-25T18:06:55.997Z,16.50
2023-03-25T18:09:27.841Z,21.30
2023-03-25T18:12:19.628Z,16.70
2023-03-25T18:14:51.107Z,18.10
2023-03-25T18:17:20.310Z,15.70
2023-03-25T18:19:49.906Z,16.90
2023-03-25T18:22:20.439Z,13.90
2023-03-25T18:24:53.467Z,14.40
2023-03-25T18:27:33.531Z,12.40
2023-03-25T18:30:42.795Z,9.80
2023-03-25T18:33:17.385Z,11.50
2023-03-25T18:38:25.160Z,8.70
2023-03-25T18:40:57.729Z,7.50
2023-03-25T18:43:31.269Z,7.40
2023-03-25T18:48:49.053Z,9.30
2023-03-25T18:51:18.870Z,8.70
2023-03-25T18:53:51.296Z,7.40
2023-03-25T18:56:21.820Z,7.50
2023-03-25T18:58:54.201Z,5.90
2023-03-25T19:01:24.755Z,6.20
2023-03-25T19:03:54.170Z,6.80
2023-03-25T19:06:25.000Z,8.00
2023-03-25T19:08:54.909Z,8.70
2023-03-25T19:11:31.064Z,9.90
2023-03-25T19:14:01.288Z,10.10
2023-03-25T19:16:31.630Z,12.40
2023-03-25T19:19:04.089Z,13.90
2023-03-25T19:21:38.869Z,12.00
2023-03-25T19:24:09.531Z,17.50
2023-03-25T19:26:48.778Z,12.90
2023-03-25T19:29:20.490Z,20.00
2023-03-25T19:32:25.479Z,13.90
2023-03-25T19:35:05.226Z,14.30
2023-03-25T19:37:58.456Z,17.80
2023-03-25T19:40:37.131Z,13.10
2023-03-25T19:43:14.298Z,16.20
2023-03-25T19:45:48.254Z,15.00
2023-03-25T19:48:19.505Z,13.90
2023-03-25T19:50:49.838Z,13.60
2023-03-25T19:53:21.720Z,15.00
2023-03-25T19:55:55.240Z,19.60
2023-03-25T19:58:26.589Z,22.60
2023-03-25T20:00:58.346Z,20.00
2023-03-25T20:03:31.697Z,16.40
2023-03-25T20:06:07.360Z,18.30
2023-03-25T20:11:14.186Z,14.40
2023-03-25T20:13:50.657Z,16.90
2023-03-25T20:16:25.014Z,18.80
2023-03-25T20:18:56.665Z,23.00
2023-03-25T20:21:29.616Z,27.50
2023-03-25T20:24:01.794Z,21.00
2023-03-25T20:26:31.840Z,19.40
2023-03-25T20:29:05.105Z,19.50
2023-03-25T20:31:36.915Z,22.00
2023-03-25T20:34:08.481Z,27.50
2023-03-25T20:36:39.474Z,23.60
2023-03-25T20:39:12.092Z,22.00
2023-03-25T20:41:50.196Z,18.10
2023-03-25T20:44:22.320Z,19.00
2023-03-25T20:47:00.326Z,18.40
2023-03-25T20:49:41.752Z,14.90
2023-03-25T20:52:13.283Z,20.50
2023-03-25T20:55:10.276Z,18.30
2023-03-25T20:57:43.279Z,17.20
2023-03-25T21:00:27.405Z,21.10
2023-03-25T21:03:02.139Z,23.30
2023-03-25T21:05:55.642Z,23.50
2023-03-25T21:13:18.673Z,25.50
2023-03-25T21:16:17.649Z,20.50
2023-03-25T21:25:56.216Z,15.50
2023-03-25T21:35:17.896Z,16.70
2023-03-25T22:12:51.771Z,14.20
2023-03-25T22:16:03.620Z,15.40
2023-03-25T22:25:46.891Z,14.70
2023-03-25T22:32:45.485Z,13.20
2023-03-25T22:35:48.653Z,13.80
2023-03-25T22:39:14.845Z,15.70
2023-03-25T22:42:25.859Z,17.80
2023-03-25T22:46:18.506Z,13.50
2023-03-25T22:49:59.856Z,14.80
2023-03-25T22:56:26.834Z,15.20
2023-03-25T23:00:03.744Z,17.90
2023-03-25T23:23:58.350Z,15.30
2023-03-25T23:26:54.581Z,15.50
2023-03-25T23:30:39.448Z,16.60
2023-03-25T23:33:54.149Z,15.60
2023-03-25T23:36:48.854Z,16.00
2023-03-25T23:40:18.767Z,16.50
2023-03-25T23:44:07.726Z,15.70
2023-03-25T23:48:11.968Z,16.40
2023-03-25T23:51:28.975Z,14.40
2023-03-25T23:54:51.656Z,14.70
2023-03-25T23:57:20.986Z,17.90
